sensor_id;sensor_type;location;lat;lon;timestamp;temperature;humidity
70244;DHT22;57634;51.136;17.024;2022-12-07T00:00:09;4.70;88.00
70244;DHT22;57634;51.136;17.024;2022-12-07T00:03:15;4.70;88.00
70244;DHT22;57634;51.136;17.024;2022-12-07T00:06:17;4.70;87.90
70244;DHT22;57634;51.136;17.024;2022-12-07T00:09:44;4.70;87.90
70244;DHT22;57634;51.136;17.024;2022-12-07T00:12:46;4.70;88.00
70244;DHT22;57634;51.136;17.024;2022-12-07T00:15:47;4.70;88.20
70244;DHT22;57634;51.136;17.024;2022-12-07T00:18:49;4.70;88.20
70244;DHT22;57634;51.136;17.024;2022-12-07T00:21:50;4.70;88.20
70244;DHT22;57634;51.136;17.024;2022-12-07T00:24:51;4.70;88.20
70244;DHT22;57634;51.136;17.024;2022-12-07T00:27:53;4.70;88.10
70244;DHT22;57634;51.136;17.024;2022-12-07T00:31:02;4.70;88.20
70244;DHT22;57634;51.136;17.024;2022-12-07T00:34:12;4.60;88.30
70244;DHT22;57634;51.136;17.024;2022-12-07T00:37:14;4.70;88.20
70244;DHT22;57634;51.136;17.024;2022-12-07T00:40:15;4.70;88.20
70244;DHT22;57634;51.136;17.024;2022-12-07T00:43:45;4.60;88.10
70244;DHT22;57634;51.136;17.024;2022-12-07T00:46:47;4.60;88.10
70244;DHT22;57634;51.136;17.024;2022-12-07T00:49:48;4.60;88.10
70244;DHT22;57634;51.136;17.024;2022-12-07T00:52:49;4.60;88.10
70244;DHT22;57634;51.136;17.024;2022-12-07T00:55:50;4.60;88.00
70244;DHT22;57634;51.136;17.024;2022-12-07T00:58:55;4.50;87.90
70244;DHT22;57634;51.136;17.024;2022-12-07T01:01:57;4.60;88.10
70244;DHT22;57634;51.136;17.024;2022-12-07T01:04:58;4.50;88.10
70244;DHT22;57634;51.136;17.024;2022-12-07T01:07:59;4.60;88.10
70244;DHT22;57634;51.136;17.024;2022-12-07T01:11:07;4.60;88.00
70244;DHT22;57634;51.136;17.024;2022-12-07T01:14:08;4.60;87.90
70244;DHT22;57634;51.136;17.024;2022-12-07T01:17:10;4.50;87.90
70244;DHT22;57634;51.136;17.024;2022-12-07T01:20:38;4.50;88.00
70244;DHT22;57634;51.136;17.024;2022-12-07T01:23:41;4.50;88.20
70244;DHT22;57634;51.136;17.024;2022-12-07T01:26:42;4.40;88.40
70244;DHT22;57634;51.136;17.024;2022-12-07T01:29:43;4.50;88.40
70244;DHT22;57634;51.136;17.024;2022-12-07T01:32:44;4.50;88.30
70244;DHT22;57634;51.136;17.024;2022-12-07T01:35:46;4.50;88.20
70244;DHT22;57634;51.136;17.024;2022-12-07T01:38:49;4.50;88.30
70244;DHT22;57634;51.136;17.024;2022-12-07T01:41:53;4.50;88.30
70244;DHT22;57634;51.136;17.024;2022-12-07T01:48:09;4.50;88.30
70244;DHT22;57634;51.136;17.024;2022-12-07T01:51:40;4.50;88.30
70244;DHT22;57634;51.136;17.024;2022-12-07T01:54:44;4.50;88.20
70244;DHT22;57634;51.136;17.024;2022-12-07T01:57:49;4.50;88.30
70244;DHT22;57634;51.136;17.024;2022-12-07T02:00:51;4.50;88.20
70244;DHT22;57634;51.136;17.024;2022-12-07T02:03:53;4.50;88.50
70244;DHT22;57634;51.136;17.024;2022-12-07T02:06:55;4.50;88.50
70244;DHT22;57634;51.136;17.024;2022-12-07T02:13:20;4.50;88.30
70244;DHT22;57634;51.136;17.024;2022-12-07T02:23:29;4.40;88.40
70244;DHT22;57634;51.136;17.024;2022-12-07T02:30:15;4.40;88.40
70244;DHT22;57634;51.136;17.024;2022-12-07T02:33:24;4.30;88.70
70244;DHT22;57634;51.136;17.024;2022-12-07T02:36:30;4.30;88.70
70244;DHT22;57634;51.136;17.024;2022-12-07T02:42:50;4.30;88.70
70244;DHT22;57634;51.136;17.024;2022-12-07T02:45:58;4.30;88.70
70244;DHT22;57634;51.136;17.024;2022-12-07T02:49:27;4.30;88.70
70244;DHT22;57634;51.136;17.024;2022-12-07T02:52:29;4.40;88.80
70244;DHT22;57634;51.136;17.024;2022-12-07T02:55:36;4.30;88.60
70244;DHT22;57634;51.136;17.024;2022-12-07T03:02:07;4.30;88.60
70244;DHT22;57634;51.136;17.024;2022-12-07T03:05:21;4.30;88.50
70244;DHT22;57634;51.136;17.024;2022-12-07T03:08:57;4.30;88.50
70244;DHT22;57634;51.136;17.024;2022-12-07T03:15:26;4.30;88.70
70244;DHT22;57634;51.136;17.024;2022-12-07T03:18:34;4.30;88.90
70244;DHT22;57634;51.136;17.024;2022-12-07T03:21:44;4.30;88.90
70244;DHT22;57634;51.136;17.024;2022-12-07T03:25:15;4.30;88.80
70244;DHT22;57634;51.136;17.024;2022-12-07T03:28:21;4.30;88.90
70244;DHT22;57634;51.136;17.024;2022-12-07T03:31:35;4.30;88.80
70244;DHT22;57634;51.136;17.024;2022-12-07T03:34:49;4.30;88.70
70244;DHT22;57634;51.136;17.024;2022-12-07T03:38:00;4.30;88.60
70244;DHT22;57634;51.136;17.024;2022-12-07T03:41:34;4.20;88.50
70244;DHT22;57634;51.136;17.024;2022-12-07T03:44:38;4.20;88.60
70244;DHT22;57634;51.136;17.024;2022-12-07T03:47:47;4.20;88.90
70244;DHT22;57634;51.136;17.024;2022-12-07T03:57:49;4.20;88.70
70244;DHT22;57634;51.136;17.024;2022-12-07T04:00:52;4.20;88.90
70244;DHT22;57634;51.136;17.024;2022-12-07T04:03:54;4.20;88.90
70244;DHT22;57634;51.136;17.024;2022-12-07T04:06:55;4.20;88.90
70244;DHT22;57634;51.136;17.024;2022-12-07T04:09:56;4.20;88.90
70244;DHT22;57634;51.136;17.024;2022-12-07T04:12:58;4.20;89.10
70244;DHT22;57634;51.136;17.024;2022-12-07T04:15:59;4.20;89.10
70244;DHT22;57634;51.136;17.024;2022-12-07T04:19:01;4.30;89.10
70244;DHT22;57634;51.136;17.024;2022-12-07T04:22:03;4.30;89.10
70244;DHT22;57634;51.136;17.024;2022-12-07T04:25:05;4.30;89.00
70244;DHT22;57634;51.136;17.024;2022-12-07T04:28:07;4.30;89.00
70244;DHT22;57634;51.136;17.024;2022-12-07T04:31:08;4.30;88.80
70244;DHT22;57634;51.136;17.024;2022-12-07T04:34:10;4.30;88.80
70244;DHT22;57634;51.136;17.024;2022-12-07T04:37:39;4.30;89.00
70244;DHT22;57634;51.136;17.024;2022-12-07T04:40:40;4.20;88.80
70244;DHT22;57634;51.136;17.024;2022-12-07T04:43:42;4.30;89.10
70244;DHT22;57634;51.136;17.024;2022-12-07T04:46:43;4.20;89.00
70244;DHT22;57634;51.136;17.024;2022-12-07T04:49:45;4.20;89.00
70244;DHT22;57634;51.136;17.024;2022-12-07T04:52:46;4.20;89.20
70244;DHT22;57634;51.136;17.024;2022-12-07T04:55:47;4.20;89.30
70244;DHT22;57634;51.136;17.024;2022-12-07T04:58:49;4.20;89.30
70244;DHT22;57634;51.136;17.024;2022-12-07T05:01:50;4.20;89.30
70244;DHT22;57634;51.136;17.024;2022-12-07T05:04:52;4.20;89.40
70244;DHT22;57634;51.136;17.024;2022-12-07T05:07:53;4.20;89.40
70244;DHT22;57634;51.136;17.024;2022-12-07T05:10:55;4.20;89.40
70244;DHT22;57634;51.136;17.024;2022-12-07T05:13:56;4.20;89.30
70244;DHT22;57634;51.136;17.024;2022-12-07T05:16:58;4.20;89.40
70244;DHT22;57634;51.136;17.024;2022-12-07T05:19:59;4.20;89.40
70244;DHT22;57634;51.136;17.024;2022-12-07T05:23:26;4.20;89.40
70244;DHT22;57634;51.136;17.024;2022-12-07T05:26:28;4.20;89.50
70244;DHT22;57634;51.136;17.024;2022-12-07T05:29:29;4.20;89.70
70244;DHT22;57634;51.136;17.024;2022-12-07T05:32:30;4.30;89.80
70244;DHT22;57634;51.136;17.024;2022-12-07T05:35:32;4.20;89.70
70244;DHT22;57634;51.136;17.024;2022-12-07T05:38:34;4.30;89.80
70244;DHT22;57634;51.136;17.024;2022-12-07T05:41:35;4.30;89.80
70244;DHT22;57634;51.136;17.024;2022-12-07T05:44:49;4.20;89.70
70244;DHT22;57634;51.136;17.024;2022-12-07T05:47:50;4.20;89.70
70244;DHT22;57634;51.136;17.024;2022-12-07T05:50:52;4.20;89.70
70244;DHT22;57634;51.136;17.024;2022-12-07T05:53:54;4.20;89.70
70244;DHT22;57634;51.136;17.024;2022-12-07T05:56:55;4.30;89.60
70244;DHT22;57634;51.136;17.024;2022-12-07T05:59:57;4.30;89.50
70244;DHT22;57634;51.136;17.024;2022-12-07T06:03:24;4.30;89.40
70244;DHT22;57634;51.136;17.024;2022-12-07T06:06:25;4.30;89.20
70244;DHT22;57634;51.136;17.024;2022-12-07T06:09:28;4.30;89.00
70244;DHT22;57634;51.136;17.024;2022-12-07T06:12:29;4.40;89.00
70244;DHT22;57634;51.136;17.024;2022-12-07T06:15:39;4.30;88.80
70244;DHT22;57634;51.136;17.024;2022-12-07T06:18:40;4.30;88.80
70244;DHT22;57634;51.136;17.024;2022-12-07T06:21:41;4.30;88.80
70244;DHT22;57634;51.136;17.024;2022-12-07T06:24:43;4.30;88.60
70244;DHT22;57634;51.136;17.024;2022-12-07T06:27:44;4.30;88.50
70244;DHT22;57634;51.136;17.024;2022-12-07T06:30:45;4.30;88.30
70244;DHT22;57634;51.136;17.024;2022-12-07T06:33:47;4.30;88.30
70244;DHT22;57634;51.136;17.024;2022-12-07T06:36:49;4.30;88.20
70244;DHT22;57634;51.136;17.024;2022-12-07T06:40:20;4.30;88.20
70244;DHT22;57634;51.136;17.024;2022-12-07T06:43:21;4.30;88.20
70244;DHT22;57634;51.136;17.024;2022-12-07T06:46:22;4.30;87.90
70244;DHT22;57634;51.136;17.024;2022-12-07T06:49:23;4.30;87.80
70244;DHT22;57634;51.136;17.024;2022-12-07T06:52:25;4.40;87.60
70244;DHT22;57634;51.136;17.024;2022-12-07T06:55:26;4.40;87.30
70244;DHT22;57634;51.136;17.024;2022-12-07T06:58:27;4.30;86.90
70244;DHT22;57634;51.136;17.024;2022-12-07T07:01:29;4.30;86.90
70244;DHT22;57634;51.136;17.024;2022-12-07T07:04:30;4.30;86.60
70244;DHT22;57634;51.136;17.024;2022-12-07T07:07:32;4.30;86.50
70244;DHT22;57634;51.136;17.024;2022-12-07T07:10:33;4.30;86.30
70244;DHT22;57634;51.136;17.024;2022-12-07T07:13:35;4.30;86.30
70244;DHT22;57634;51.136;17.024;2022-12-07T07:16:38;4.30;86.30
70244;DHT22;57634;51.136;17.024;2022-12-07T07:19:39;4.30;86.20
70244;DHT22;57634;51.136;17.024;2022-12-07T07:23:09;4.40;86.00
70244;DHT22;57634;51.136;17.024;2022-12-07T07:26:10;4.30;85.60
70244;DHT22;57634;51.136;17.024;2022-12-07T07:29:11;4.40;85.70
70244;DHT22;57634;51.136;17.024;2022-12-07T07:32:12;4.40;85.70
70244;DHT22;57634;51.136;17.024;2022-12-07T07:35:14;4.40;85.50
70244;DHT22;57634;51.136;17.024;2022-12-07T07:38:16;4.50;85.50
70244;DHT22;57634;51.136;17.024;2022-12-07T07:41:17;4.60;85.60
70244;DHT22;57634;51.136;17.024;2022-12-07T07:44:18;4.70;85.60
70244;DHT22;57634;51.136;17.024;2022-12-07T07:47:20;4.80;85.10
70244;DHT22;57634;51.136;17.024;2022-12-07T07:50:21;4.90;84.40
70244;DHT22;57634;51.136;17.024;2022-12-07T07:53:22;4.90;84.30
70244;DHT22;57634;51.136;17.024;2022-12-07T07:56:23;5.10;84.70
70244;DHT22;57634;51.136;17.024;2022-12-07T07:59:25;5.40;84.60
70244;DHT22;57634;51.136;17.024;2022-12-07T08:02:26;5.70;84.30
70244;DHT22;57634;51.136;17.024;2022-12-07T08:05:58;6.00;83.50
70244;DHT22;57634;51.136;17.024;2022-12-07T08:08:59;6.20;82.40
70244;DHT22;57634;51.136;17.024;2022-12-07T08:12:01;6.20;81.20
70244;DHT22;57634;51.136;17.024;2022-12-07T08:15:02;6.20;80.70
70244;DHT22;57634;51.136;17.024;2022-12-07T08:18:05;6.10;80.30
70244;DHT22;57634;51.136;17.024;2022-12-07T08:21:09;6.00;80.20
70244;DHT22;57634;51.136;17.024;2022-12-07T08:24:12;5.90;80.30
70244;DHT22;57634;51.136;17.024;2022-12-07T08:27:13;5.80;80.30
70244;DHT22;57634;51.136;17.024;2022-12-07T08:30:14;5.80;80.40
70244;DHT22;57634;51.136;17.024;2022-12-07T08:33:15;5.80;80.20
70244;DHT22;57634;51.136;17.024;2022-12-07T08:36:17;5.80;80.20
70244;DHT22;57634;51.136;17.024;2022-12-07T08:39:19;5.90;80.70
70244;DHT22;57634;51.136;17.024;2022-12-07T08:42:21;6.10;81.00
70244;DHT22;57634;51.136;17.024;2022-12-07T08:49:12;6.80;79.40
70244;DHT22;57634;51.136;17.024;2022-12-07T08:52:15;6.80;77.70
70244;DHT22;57634;51.136;17.024;2022-12-07T08:55:17;6.80;77.20
70244;DHT22;57634;51.136;17.024;2022-12-07T08:58:18;6.90;77.60
70244;DHT22;57634;51.136;17.024;2022-12-07T09:01:20;7.10;77.60
70244;DHT22;57634;51.136;17.024;2022-12-07T09:04:21;7.50;77.00
70244;DHT22;57634;51.136;17.024;2022-12-07T09:07:23;7.70;75.70
70244;DHT22;57634;51.136;17.024;2022-12-07T09:10:25;7.90;74.70
70244;DHT22;57634;51.136;17.024;2022-12-07T09:13:27;8.00;74.30
70244;DHT22;57634;51.136;17.024;2022-12-07T09:16:54;8.20;73.90
70244;DHT22;57634;51.136;17.024;2022-12-07T09:19:55;8.40;73.10
70244;DHT22;57634;51.136;17.024;2022-12-07T09:22:57;8.50;72.70
70244;DHT22;57634;51.136;17.024;2022-12-07T09:26:02;8.60;71.60
70244;DHT22;57634;51.136;17.024;2022-12-07T09:29:05;8.70;71.30
70244;DHT22;57634;51.136;17.024;2022-12-07T09:32:06;8.80;70.80
70244;DHT22;57634;51.136;17.024;2022-12-07T09:35:08;8.90;69.50
70244;DHT22;57634;51.136;17.024;2022-12-07T09:38:11;8.90;68.80
70244;DHT22;57634;51.136;17.024;2022-12-07T09:41:12;8.80;68.30
70244;DHT22;57634;51.136;17.024;2022-12-07T09:44:19;8.60;68.10
70244;DHT22;57634;51.136;17.024;2022-12-07T09:47:21;8.40;68.10
70244;DHT22;57634;51.136;17.024;2022-12-07T09:50:27;8.20;67.60
70244;DHT22;57634;51.136;17.024;2022-12-07T09:53:56;8.00;68.10
70244;DHT22;57634;51.136;17.024;2022-12-07T09:56:59;7.80;67.90
70244;DHT22;57634;51.136;17.024;2022-12-07T10:00:04;7.70;67.90
70244;DHT22;57634;51.136;17.024;2022-12-07T10:03:11;7.50;68.50
70244;DHT22;57634;51.136;17.024;2022-12-07T10:06:13;7.50;68.60
70244;DHT22;57634;51.136;17.024;2022-12-07T10:09:17;7.50;68.60
70244;DHT22;57634;51.136;17.024;2022-12-07T10:12:19;7.50;68.00
70244;DHT22;57634;51.136;17.024;2022-12-07T10:15:21;7.40;67.90
70244;DHT22;57634;51.136;17.024;2022-12-07T10:18:32;7.40;68.10
70244;DHT22;57634;51.136;17.024;2022-12-07T10:22:13;7.30;68.50
70244;DHT22;57634;51.136;17.024;2022-12-07T10:25:22;7.20;68.40
70244;DHT22;57634;51.136;17.024;2022-12-07T10:28:33;7.10;68.40
70244;DHT22;57634;51.136;17.024;2022-12-07T10:31:38;7.00;68.50
70244;DHT22;57634;51.136;17.024;2022-12-07T10:34:41;6.90;68.50
70244;DHT22;57634;51.136;17.024;2022-12-07T10:37:42;6.80;69.00
70244;DHT22;57634;51.136;17.024;2022-12-07T10:40:44;6.70;69.70
70244;DHT22;57634;51.136;17.024;2022-12-07T10:44:20;6.60;70.10
70244;DHT22;57634;51.136;17.024;2022-12-07T10:53:57;6.30;71.60
70244;DHT22;57634;51.136;17.024;2022-12-07T10:57:41;6.30;71.90
70244;DHT22;57634;51.136;17.024;2022-12-07T11:07:28;6.10;72.70
70244;DHT22;57634;51.136;17.024;2022-12-07T11:11:09;6.00;73.20
70244;DHT22;57634;51.136;17.024;2022-12-07T11:14:20;5.90;74.00
70244;DHT22;57634;51.136;17.024;2022-12-07T11:18:09;5.90;74.60
70244;DHT22;57634;51.136;17.024;2022-12-07T11:24:18;5.80;75.20
70244;DHT22;57634;51.136;17.024;2022-12-07T11:30:43;5.70;75.90
70244;DHT22;57634;51.136;17.024;2022-12-07T11:33:52;5.70;76.00
70244;DHT22;57634;51.136;17.024;2022-12-07T11:37:01;5.80;76.00
70244;DHT22;57634;51.136;17.024;2022-12-07T11:40:19;5.70;76.30
70244;DHT22;57634;51.136;17.024;2022-12-07T11:43:26;5.70;76.40
70244;DHT22;57634;51.136;17.024;2022-12-07T11:53:32;5.70;77.20
70244;DHT22;57634;51.136;17.024;2022-12-07T11:56:35;5.70;77.40
70244;DHT22;57634;51.136;17.024;2022-12-07T11:59:48;5.70;77.60
70244;DHT22;57634;51.136;17.024;2022-12-07T12:03:01;5.70;77.80
70244;DHT22;57634;51.136;17.024;2022-12-07T12:06:30;5.70;77.70
70244;DHT22;57634;51.136;17.024;2022-12-07T12:09:36;5.70;77.90
70244;DHT22;57634;51.136;17.024;2022-12-07T12:22:55;5.60;78.40
70244;DHT22;57634;51.136;17.024;2022-12-07T12:26:05;5.60;78.50
70244;DHT22;57634;51.136;17.024;2022-12-07T12:29:21;5.70;78.60
70244;DHT22;57634;51.136;17.024;2022-12-07T12:32:33;5.70;78.30
70244;DHT22;57634;51.136;17.024;2022-12-07T12:35:37;5.80;78.10
70244;DHT22;57634;51.136;17.024;2022-12-07T12:39:16;5.80;77.70
70244;DHT22;57634;51.136;17.024;2022-12-07T12:42:42;5.90;77.70
70244;DHT22;57634;51.136;17.024;2022-12-07T12:45:33;6.00;77.60
70244;DHT22;57634;51.136;17.024;2022-12-07T12:48:38;6.00;77.20
70244;DHT22;57634;51.136;17.024;2022-12-07T12:51:41;6.00;76.90
70244;DHT22;57634;51.136;17.024;2022-12-07T12:58:32;6.00;77.00
70244;DHT22;57634;51.136;17.024;2022-12-07T13:01:41;6.00;77.10
70244;DHT22;57634;51.136;17.024;2022-12-07T13:08:02;6.00;77.10
70244;DHT22;57634;51.136;17.024;2022-12-07T13:14:52;5.90;77.20
70244;DHT22;57634;51.136;17.024;2022-12-07T13:17:58;5.90;77.20
70244;DHT22;57634;51.136;17.024;2022-12-07T13:24:14;5.80;77.30
70244;DHT22;57634;51.136;17.024;2022-12-07T13:27:16;5.80;77.10
70244;DHT22;57634;51.136;17.024;2022-12-07T13:30:20;5.80;77.20
70244;DHT22;57634;51.136;17.024;2022-12-07T13:33:23;5.80;77.40
70244;DHT22;57634;51.136;17.024;2022-12-07T13:36:55;5.70;77.40
70244;DHT22;57634;51.136;17.024;2022-12-07T13:39:59;5.70;77.60
70244;DHT22;57634;51.136;17.024;2022-12-07T13:43:04;5.70;77.70
70244;DHT22;57634;51.136;17.024;2022-12-07T13:46:08;5.70;77.60
70244;DHT22;57634;51.136;17.024;2022-12-07T13:49:23;5.70;77.70
70244;DHT22;57634;51.136;17.024;2022-12-07T13:52:30;5.70;77.70
70244;DHT22;57634;51.136;17.024;2022-12-07T13:55:32;5.70;77.90
70244;DHT22;57634;51.136;17.024;2022-12-07T13:58:33;5.70;77.90
70244;DHT22;57634;51.136;17.024;2022-12-07T14:02:01;5.70;78.00
70244;DHT22;57634;51.136;17.024;2022-12-07T14:05:22;5.70;78.10
70244;DHT22;57634;51.136;17.024;2022-12-07T14:08:22;5.70;77.90
70244;DHT22;57634;51.136;17.024;2022-12-07T14:11:28;5.60;77.90
70244;DHT22;57634;51.136;17.024;2022-12-07T14:14:32;5.60;77.80
70244;DHT22;57634;51.136;17.024;2022-12-07T14:17:33;5.60;77.90
70244;DHT22;57634;51.136;17.024;2022-12-07T14:20:40;5.60;77.80
70244;DHT22;57634;51.136;17.024;2022-12-07T14:24:18;5.60;77.90
70244;DHT22;57634;51.136;17.024;2022-12-07T14:27:24;5.50;77.70
70244;DHT22;57634;51.136;17.024;2022-12-07T14:30:33;5.50;77.80
70244;DHT22;57634;51.136;17.024;2022-12-07T14:33:35;5.50;77.60
70244;DHT22;57634;51.136;17.024;2022-12-07T14:36:36;5.50;77.50
70244;DHT22;57634;51.136;17.024;2022-12-07T14:39:38;5.40;77.40
70244;DHT22;57634;51.136;17.024;2022-12-07T14:42:39;5.40;77.40
70244;DHT22;57634;51.136;17.024;2022-12-07T14:45:41;5.30;77.30
70244;DHT22;57634;51.136;17.024;2022-12-07T14:48:43;5.30;77.30
70244;DHT22;57634;51.136;17.024;2022-12-07T14:52:16;5.20;77.40
70244;DHT22;57634;51.136;17.024;2022-12-07T14:55:25;5.20;77.30
70244;DHT22;57634;51.136;17.024;2022-12-07T14:58:26;5.20;77.30
70244;DHT22;57634;51.136;17.024;2022-12-07T15:01:28;5.10;77.50
70244;DHT22;57634;51.136;17.024;2022-12-07T15:04:30;5.10;77.50
70244;DHT22;57634;51.136;17.024;2022-12-07T15:07:31;5.10;77.50
70244;DHT22;57634;51.136;17.024;2022-12-07T15:10:33;5.10;77.50
70244;DHT22;57634;51.136;17.024;2022-12-07T15:13:39;5.00;77.50
70244;DHT22;57634;51.136;17.024;2022-12-07T15:17:18;5.00;77.60
70244;DHT22;57634;51.136;17.024;2022-12-07T15:20:19;5.00;77.70
70244;DHT22;57634;51.136;17.024;2022-12-07T15:23:20;4.90;77.80
70244;DHT22;57634;51.136;17.024;2022-12-07T15:26:22;4.90;77.90
70244;DHT22;57634;51.136;17.024;2022-12-07T15:29:23;4.90;78.00
70244;DHT22;57634;51.136;17.024;2022-12-07T15:32:25;4.90;78.10
70244;DHT22;57634;51.136;17.024;2022-12-07T15:35:27;4.80;78.20
70244;DHT22;57634;51.136;17.024;2022-12-07T15:38:28;4.80;78.40
70244;DHT22;57634;51.136;17.024;2022-12-07T15:41:31;4.80;78.50
70244;DHT22;57634;51.136;17.024;2022-12-07T15:44:32;4.80;78.70
70244;DHT22;57634;51.136;17.024;2022-12-07T15:47:45;4.80;78.80
70244;DHT22;57634;51.136;17.024;2022-12-07T15:50:47;4.80;78.80
70244;DHT22;57634;51.136;17.024;2022-12-07T15:54:22;4.80;78.80
70244;DHT22;57634;51.136;17.024;2022-12-07T15:57:23;4.70;78.80
70244;DHT22;57634;51.136;17.024;2022-12-07T16:00:25;4.70;78.90
70244;DHT22;57634;51.136;17.024;2022-12-07T16:03:29;4.70;79.00
70244;DHT22;57634;51.136;17.024;2022-12-07T16:06:31;4.70;79.00
70244;DHT22;57634;51.136;17.024;2022-12-07T16:09:32;4.60;79.10
70244;DHT22;57634;51.136;17.024;2022-12-07T16:12:33;4.60;79.20
70244;DHT22;57634;51.136;17.024;2022-12-07T16:15:38;4.60;79.40
70244;DHT22;57634;51.136;17.024;2022-12-07T16:18:42;4.70;79.60
70244;DHT22;57634;51.136;17.024;2022-12-07T16:21:44;4.70;79.60
70244;DHT22;57634;51.136;17.024;2022-12-07T16:24:45;4.80;79.60
70244;DHT22;57634;51.136;17.024;2022-12-07T16:28:13;4.80;79.40
70244;DHT22;57634;51.136;17.024;2022-12-07T16:31:16;4.80;79.40
70244;DHT22;57634;51.136;17.024;2022-12-07T16:34:18;4.80;79.40
70244;DHT22;57634;51.136;17.024;2022-12-07T16:37:20;4.80;79.50
70244;DHT22;57634;51.136;17.024;2022-12-07T16:40:21;4.80;79.50
70244;DHT22;57634;51.136;17.024;2022-12-07T16:43:22;4.70;79.60
70244;DHT22;57634;51.136;17.024;2022-12-07T16:46:23;4.70;79.80
70244;DHT22;57634;51.136;17.024;2022-12-07T16:49:25;4.70;80.00
70244;DHT22;57634;51.136;17.024;2022-12-07T16:52:26;4.60;80.20
70244;DHT22;57634;51.136;17.024;2022-12-07T16:55:27;4.60;80.30
70244;DHT22;57634;51.136;17.024;2022-12-07T16:58:28;4.60;80.50
70244;DHT22;57634;51.136;17.024;2022-12-07T17:01:30;4.70;80.60
70244;DHT22;57634;51.136;17.024;2022-12-07T17:04:33;4.70;80.60
70244;DHT22;57634;51.136;17.024;2022-12-07T17:07:35;4.60;80.50
70244;DHT22;57634;51.136;17.024;2022-12-07T17:11:11;4.60;80.60
70244;DHT22;57634;51.136;17.024;2022-12-07T17:14:13;4.60;80.60
70244;DHT22;57634;51.136;17.024;2022-12-07T17:17:25;4.60;80.60
70244;DHT22;57634;51.136;17.024;2022-12-07T17:20:27;4.60;80.70
70244;DHT22;57634;51.136;17.024;2022-12-07T17:23:29;4.50;80.60
70244;DHT22;57634;51.136;17.024;2022-12-07T17:26:32;4.40;80.60
70244;DHT22;57634;51.136;17.024;2022-12-07T17:29:33;4.40;80.70
70244;DHT22;57634;51.136;17.024;2022-12-07T17:32:35;4.40;80.70
70244;DHT22;57634;51.136;17.024;2022-12-07T17:35:37;4.30;80.80
70244;DHT22;57634;51.136;17.024;2022-12-07T17:39:10;4.30;80.90
70244;DHT22;57634;51.136;17.024;2022-12-07T17:42:14;4.20;81.00
70244;DHT22;57634;51.136;17.024;2022-12-07T17:45:27;4.10;81.00
70244;DHT22;57634;51.136;17.024;2022-12-07T17:48:28;4.00;81.10
70244;DHT22;57634;51.136;17.024;2022-12-07T17:51:30;4.00;81.20
70244;DHT22;57634;51.136;17.024;2022-12-07T17:54:43;3.90;81.30
70244;DHT22;57634;51.136;17.024;2022-12-07T17:57:44;3.90;81.40
70244;DHT22;57634;51.136;17.024;2022-12-07T18:00:45;3.80;81.40
70244;DHT22;57634;51.136;17.024;2022-12-07T18:04:13;3.80;81.50
70244;DHT22;57634;51.136;17.024;2022-12-07T18:07:14;3.70;81.60
70244;DHT22;57634;51.136;17.024;2022-12-07T18:10:15;3.70;81.70
70244;DHT22;57634;51.136;17.024;2022-12-07T18:13:16;3.70;81.80
70244;DHT22;57634;51.136;17.024;2022-12-07T18:16:31;3.60;81.90
70244;DHT22;57634;51.136;17.024;2022-12-07T18:19:35;3.60;81.90
70244;DHT22;57634;51.136;17.024;2022-12-07T18:22:37;3.60;82.00
70244;DHT22;57634;51.136;17.024;2022-12-07T18:25:39;3.50;82.00
70244;DHT22;57634;51.136;17.024;2022-12-07T18:28:44;3.50;82.10
70244;DHT22;57634;51.136;17.024;2022-12-07T18:31:46;3.50;82.10
70244;DHT22;57634;51.136;17.024;2022-12-07T18:35:14;3.40;82.10
70244;DHT22;57634;51.136;17.024;2022-12-07T18:38:16;3.40;82.20
70244;DHT22;57634;51.136;17.024;2022-12-07T18:41:18;3.30;82.20
70244;DHT22;57634;51.136;17.024;2022-12-07T18:44:20;3.30;82.30
70244;DHT22;57634;51.136;17.024;2022-12-07T18:47:21;3.30;82.30
70244;DHT22;57634;51.136;17.024;2022-12-07T18:50:23;3.20;82.30
70244;DHT22;57634;51.136;17.024;2022-12-07T18:53:24;3.20;82.40
70244;DHT22;57634;51.136;17.024;2022-12-07T18:56:25;3.20;82.50
70244;DHT22;57634;51.136;17.024;2022-12-07T18:59:27;3.20;82.50
70244;DHT22;57634;51.136;17.024;2022-12-07T19:02:40;3.20;82.50
70244;DHT22;57634;51.136;17.024;2022-12-07T19:05:42;3.20;82.50
70244;DHT22;57634;51.136;17.024;2022-12-07T19:09:12;3.20;82.70
70244;DHT22;57634;51.136;17.024;2022-12-07T19:12:13;3.20;82.70
70244;DHT22;57634;51.136;17.024;2022-12-07T19:15:15;3.20;82.70
70244;DHT22;57634;51.136;17.024;2022-12-07T19:18:17;3.20;82.80
70244;DHT22;57634;51.136;17.024;2022-12-07T19:21:18;3.20;82.80
70244;DHT22;57634;51.136;17.024;2022-12-07T19:24:19;3.10;82.80
70244;DHT22;57634;51.136;17.024;2022-12-07T19:27:22;3.10;83.00
70244;DHT22;57634;51.136;17.024;2022-12-07T19:30:23;3.10;83.00
70244;DHT22;57634;51.136;17.024;2022-12-07T19:33:27;3.10;83.20
70244;DHT22;57634;51.136;17.024;2022-12-07T19:36:28;3.10;83.20
70244;DHT22;57634;51.136;17.024;2022-12-07T19:39:30;3.10;83.30
70244;DHT22;57634;51.136;17.024;2022-12-07T19:42:32;3.10;83.30
70244;DHT22;57634;51.136;17.024;2022-12-07T19:45:36;3.10;83.50
70244;DHT22;57634;51.136;17.024;2022-12-07T19:49:04;3.20;83.70
70244;DHT22;57634;51.136;17.024;2022-12-07T19:52:06;3.20;83.80
70244;DHT22;57634;51.136;17.024;2022-12-07T19:55:08;3.30;83.80
70244;DHT22;57634;51.136;17.024;2022-12-07T19:58:09;3.30;83.80
70244;DHT22;57634;51.136;17.024;2022-12-07T20:01:11;3.40;83.80
70244;DHT22;57634;51.136;17.024;2022-12-07T20:04:15;3.40;83.70
70244;DHT22;57634;51.136;17.024;2022-12-07T20:07:17;3.50;83.80
70244;DHT22;57634;51.136;17.024;2022-12-07T20:10:18;3.50;83.70
70244;DHT22;57634;51.136;17.024;2022-12-07T20:13:19;3.50;83.50
70244;DHT22;57634;51.136;17.024;2022-12-07T20:16:32;3.50;83.50
70244;DHT22;57634;51.136;17.024;2022-12-07T20:19:37;3.50;83.40
70244;DHT22;57634;51.136;17.024;2022-12-07T20:23:04;3.60;83.40
70244;DHT22;57634;51.136;17.024;2022-12-07T20:26:09;3.60;83.30
70244;DHT22;57634;51.136;17.024;2022-12-07T20:29:12;3.60;83.20
70244;DHT22;57634;51.136;17.024;2022-12-07T20:32:17;3.60;83.10
70244;DHT22;57634;51.136;17.024;2022-12-07T20:35:18;3.60;83.10
70244;DHT22;57634;51.136;17.024;2022-12-07T20:38:20;3.60;83.10
70244;DHT22;57634;51.136;17.024;2022-12-07T20:41:21;3.60;83.20
70244;DHT22;57634;51.136;17.024;2022-12-07T20:44:35;3.60;83.20
70244;DHT22;57634;51.136;17.024;2022-12-07T20:47:37;3.70;83.30
70244;DHT22;57634;51.136;17.024;2022-12-07T20:50:38;3.80;83.30
70244;DHT22;57634;51.136;17.024;2022-12-07T20:54:06;3.80;83.10
70244;DHT22;57634;51.136;17.024;2022-12-07T20:57:08;3.90;83.00
70244;DHT22;57634;51.136;17.024;2022-12-07T21:00:10;4.00;82.90
70244;DHT22;57634;51.136;17.024;2022-12-07T21:03:11;4.10;82.70